Time;durP1;ratioP1;P1;durP2;ratioP2;P2;SDS_P1;SDS_P2;PMS_P1;PMS_P2;Temp;Humidity;BMP_temperature;BMP_pressure;BME280_temperature;BME280_humidity;BME280_pressure;Samples;Min_cycle;Max_cycle;Signal;HPM_P1;HPM_P2
2021/01/19 00:00:16;;;;;;;6.47;3.08;;;5.00;97.00;;;;;;5106831;28;20040;-71
2021/01/19 00:02:43;;;;;;;5.90;2.92;;;4.70;97.40;;;;;;5105199;28;20131;-71
2021/01/19 00:05:10;;;;;;;9.43;3.45;;;4.60;97.40;;;;;;5109569;27;20062;-71
2021/01/19 00:07:36;;;;;;;9.48;3.03;;;4.70;97.30;;;;;;5104505;28;20079;-72
2021/01/19 00:10:04;;;;;;;8.57;3.10;;;5.10;97.30;;;;;;5103715;27;20467;-71
2021/01/19 00:12:30;;;;;;;7.63;2.83;;;4.80;96.80;;;;;;5112964;28;20064;-71
2021/01/19 00:14:56;;;;;;;6.88;3.15;;;5.00;96.80;;;;;;5102385;28;20592;-71
2021/01/19 00:17:23;;;;;;;7.32;3.30;;;4.80;96.70;;;;;;5106361;28;20097;-83
2021/01/19 00:19:49;;;;;;;6.18;3.10;;;4.80;96.80;;;;;;5110232;28;20074;-71
2021/01/19 00:22:15;;;;;;;8.82;3.58;;;4.70;96.50;;;;;;5108820;28;20046;-71
2021/01/19 00:24:41;;;;;;;7.03;3.33;;;4.80;96.90;;;;;;5109394;28;20076;-72
2021/01/19 00:27:08;;;;;;;9.13;3.72;;;5.00;96.60;;;;;;5105476;28;20066;-72
2021/01/19 00:29:34;;;;;;;8.32;3.40;;;4.80;96.30;;;;;;5105565;28;20200;-71
2021/01/19 00:32:04;;;;;;;6.88;3.08;;;4.70;96.30;;;;;;5104250;28;20044;-72
2021/01/19 00:34:30;;;;;;;4.78;2.25;;;4.70;96.20;;;;;;5110277;28;20136;-73
2021/01/19 00:36:56;;;;;;;10.35;3.83;;;4.60;96.50;;;;;;5109519;28;20043;-71
2021/01/19 00:39:24;;;;;;;8.73;3.65;;;4.50;96.60;;;;;;5102595;28;20047;-71
2021/01/19 00:41:50;;;;;;;10.23;3.33;;;4.60;96.50;;;;;;5107875;28;20073;-72
2021/01/19 00:44:16;;;;;;;8.02;3.65;;;4.70;96.30;;;;;;5108551;28;20056;-73
2021/01/19 00:46:43;;;;;;;9.90;3.70;;;4.60;96.50;;;;;;5107400;28;20044;-72
2021/01/19 00:49:09;;;;;;;10.55;3.65;;;4.80;96.40;;;;;;5108753;28;20135;-70
2021/01/19 00:51:36;;;;;;;12.23;3.85;;;4.70;96.40;;;;;;5107843;28;20395;-72
2021/01/19 00:54:03;;;;;;;5.65;2.88;;;4.30;96.60;;;;;;5109243;27;20063;-72
2021/01/19 00:56:39;;;;;;;6.88;3.33;;;4.40;96.50;;;;;;5108416;28;20082;-71
2021/01/19 00:59:06;;;;;;;7.60;3.50;;;4.30;96.70;;;;;;5108979;28;20093;-72
2021/01/19 01:01:33;;;;;;;7.13;3.42;;;4.40;96.60;;;;;;5110673;28;20449;-72
2021/01/19 01:04:00;;;;;;;8.55;3.33;;;4.50;96.60;;;;;;5105991;28;20563;-73
2021/01/19 01:06:26;;;;;;;8.95;3.80;;;4.80;96.20;;;;;;5105917;28;20047;-72
2021/01/19 01:08:53;;;;;;;7.28;3.70;;;4.60;96.20;;;;;;5107054;28;20116;-71
2021/01/19 01:11:19;;;;;;;7.82;3.38;;;4.50;95.90;;;;;;5099706;28;20109;-71
2021/01/19 01:13:45;;;;;;;8.52;3.10;;;4.60;96.00;;;;;;5111316;28;20048;-71
2021/01/19 01:16:15;;;;;;;6.57;3.08;;;4.50;96.00;;;;;;5106839;28;20051;-72
2021/01/19 01:18:41;;;;;;;9.90;3.67;;;4.50;96.20;;;;;;5102486;28;20079;-72
2021/01/19 01:21:12;;;;;;;9.23;3.70;;;4.60;96.00;;;;;;5111568;28;20093;-72
2021/01/19 01:23:38;;;;;;;8.77;3.85;;;4.60;96.00;;;;;;5105653;28;20099;-72
2021/01/19 01:26:05;;;;;;;13.70;4.15;;;4.60;96.10;;;;;;5106410;28;20108;-72
2021/01/19 01:28:31;;;;;;;8.00;3.28;;;4.40;96.20;;;;;;5105078;28;20423;-72
2021/01/19 01:30:58;;;;;;;9.10;3.33;;;4.50;96.10;;;;;;5100444;28;20067;-71
2021/01/19 01:33:25;;;;;;;9.73;3.40;;;4.50;96.10;;;;;;5108053;28;20541;-73
2021/01/19 01:35:51;;;;;;;7.47;3.83;;;4.50;96.10;;;;;;5110932;28;20497;-72
2021/01/19 01:38:17;;;;;;;7.30;3.20;;;4.60;95.80;;;;;;5104541;28;20087;-72
2021/01/19 01:40:43;;;;;;;12.55;4.57;;;4.50;96.10;;;;;;5103081;28;20056;-77
2021/01/19 01:43:14;;;;;;;10.98;4.20;;;4.50;96.10;;;;;;5105618;28;20079;-71
2021/01/19 01:45:42;;;;;;;11.15;4.00;;;4.80;96.20;;;;;;5103738;28;20070;-70
2021/01/19 01:48:10;;;;;;;10.90;3.15;;;4.60;96.00;;;;;;5109684;28;20467;-72
2021/01/19 01:50:38;;;;;;;7.18;3.88;;;4.70;95.90;;;;;;5106354;28;20056;-72
2021/01/19 01:53:05;;;;;;;9.27;3.90;;;5.00;95.70;;;;;;5108702;28;20056;-71
2021/01/19 01:55:34;;;;;;;6.05;3.72;;;4.80;95.80;;;;;;5107414;28;20062;-71
2021/01/19 01:58:01;;;;;;;8.18;3.67;;;4.70;96.00;;;;;;5105856;28;20075;-71
2021/01/19 02:00:27;;;;;;;8.40;4.07;;;4.80;95.70;;;;;;5097799;28;20048;-70
2021/01/19 02:02:58;;;;;;;6.88;3.30;;;4.50;95.70;;;;;;5106135;28;20493;-71
2021/01/19 02:05:25;;;;;;;;;;;4.70;95.70;;;;;;5106629;28;20053;-71
2021/01/19 02:08:03;;;;;;;8.10;3.22;;;4.70;95.80;;;;;;5106445;28;20417;-70
2021/01/19 02:10:41;;;;;;;4.63;2.63;;;4.50;95.70;;;;;;5105998;28;20140;-70
2021/01/19 02:13:57;;;;;;;6.20;3.33;;;4.50;95.50;;;;;;5099382;28;20069;-71
2021/01/19 02:16:30;;;;;;;6.22;3.40;;;4.50;95.60;;;;;;5106034;28;20052;-70
2021/01/19 02:19:15;;;;;;;9.60;3.95;;;4.60;95.20;;;;;;5106852;28;20550;-72
2021/01/19 02:21:56;;;;;;;8.88;4.20;;;4.70;95.10;;;;;;5104278;28;20096;-71
2021/01/19 02:24:41;;;;;;;8.27;3.83;;;4.90;94.90;;;;;;5097685;28;20083;-71
2021/01/19 02:27:38;;;;;;;13.15;3.83;;;4.80;95.10;;;;;;5104160;28;20164;-71
2021/01/19 02:30:06;;;;;;;9.15;3.42;;;4.40;94.90;;;;;;5100933;28;20075;-72
2021/01/19 02:32:32;;;;;;;12.95;3.40;;;4.80;94.90;;;;;;5102093;28;20171;-72
2021/01/19 02:35:07;;;;;;;5.82;3.58;;;4.60;94.80;;;;;;5109405;28;20109;-70
2021/01/19 02:37:45;;;;;;;9.50;3.40;;;4.50;94.90;;;;;;5105507;28;20055;-70
2021/01/19 02:40:18;;;;;;;7.50;3.47;;;4.40;94.90;;;;;;5105516;28;20044;-70
2021/01/19 02:42:52;;;;;;;13.65;3.97;;;4.70;95.10;;;;;;5112834;28;20079;-71
2021/01/19 02:45:20;;;;;;;5.95;3.63;;;4.70;94.80;;;;;;5105744;28;20055;-71
2021/01/19 02:47:46;;;;;;;4.93;2.20;;;4.80;94.70;;;;;;5098467;28;20041;-73
2021/01/19 02:50:13;;;;;;;8.77;3.50;;;4.60;94.40;;;;;;5111216;27;20130;-71
2021/01/19 02:52:41;;;;;;;8.23;3.17;;;4.50;94.70;;;;;;5111932;28;20052;-71
2021/01/19 02:55:09;;;;;;;6.70;3.20;;;4.70;94.50;;;;;;5110153;28;20047;-71
2021/01/19 02:58:03;;;;;;;5.72;3.05;;;4.60;94.40;;;;;;5112756;28;20059;-71
2021/01/19 03:00:51;;;;;;;8.88;3.13;;;4.70;94.60;;;;;;5106496;28;20168;-72
2021/01/19 03:03:18;;;;;;;10.43;2.50;;;4.50;94.40;;;;;;5106907;28;20070;-71
2021/01/19 03:05:46;;;;;;;8.07;2.25;;;4.60;94.60;;;;;;5113151;28;20048;-71
2021/01/19 03:08:13;;;;;;;9.20;3.50;;;4.40;94.50;;;;;;5109686;28;20113;-70
2021/01/19 03:10:41;;;;;;;8.48;3.13;;;4.50;94.60;;;;;;5107371;28;20100;-71
2021/01/19 03:13:14;;;;;;;5.38;2.75;;;4.60;94.20;;;;;;5112202;28;20101;-72
2021/01/19 03:15:41;;;;;;;5.28;3.13;;;4.60;94.20;;;;;;5109174;28;20490;-71
2021/01/19 03:18:08;;;;;;;5.53;2.90;;;4.70;94.40;;;;;;5114348;28;20059;-72
2021/01/19 03:20:35;;;;;;;4.30;2.20;;;4.60;94.10;;;;;;5108969;28;20047;-71
2021/01/19 03:23:03;;;;;;;7.47;3.15;;;4.50;93.90;;;;;;5111550;28;20075;-71
2021/01/19 03:25:30;;;;;;;6.80;3.08;;;4.50;93.80;;;;;;5103084;28;20071;-71
2021/01/19 03:27:56;;;;;;;7.82;2.88;;;4.70;94.00;;;;;;5109095;28;20063;-71
2021/01/19 03:30:22;;;;;;;5.30;2.75;;;4.50;93.90;;;;;;5102274;27;20096;-71
2021/01/19 03:32:49;;;;;;;8.13;3.20;;;4.70;94.00;;;;;;5110691;28;20094;-73
2021/01/19 03:35:15;;;;;;;10.57;2.42;;;4.50;94.00;;;;;;5107432;28;20075;-72
2021/01/19 03:37:41;;;;;;;10.40;3.03;;;4.40;94.00;;;;;;5111308;28;20075;-71
2021/01/19 03:40:09;;;;;;;6.78;3.03;;;4.60;94.20;;;;;;5107906;28;20475;-71
2021/01/19 03:42:35;;;;;;;3.45;2.78;;;4.50;94.20;;;;;;5111171;28;20056;-72
2021/01/19 03:45:02;;;;;;;4.05;2.47;;;4.20;94.20;;;;;;5101100;28;20134;-69
2021/01/19 03:47:28;;;;;;;6.72;3.00;;;4.30;94.30;;;;;;5101452;27;20056;-71
2021/01/19 03:49:55;;;;;;;8.82;3.17;;;4.70;94.40;;;;;;5104851;28;20047;-71
2021/01/19 03:52:22;;;;;;;9.45;3.55;;;4.40;94.10;;;;;;5110496;28;20104;-72
2021/01/19 03:54:48;;;;;;;8.20;3.53;;;4.40;94.20;;;;;;5107232;28;20097;-72
2021/01/19 03:57:14;;;;;;;9.32;3.17;;;4.30;94.40;;;;;;5112559;28;20051;-70
2021/01/19 03:59:41;;;;;;;8.95;3.60;;;4.30;94.40;;;;;;5109699;28;20050;-71
2021/01/19 04:02:07;;;;;;;7.07;3.10;;;4.30;94.60;;;;;;5103200;28;20611;-72
2021/01/19 04:04:33;;;;;;;9.05;3.13;;;4.50;94.50;;;;;;5113742;28;20429;-71
2021/01/19 04:06:59;;;;;;;5.32;2.95;;;4.50;94.50;;;;;;5109968;28;20100;-70
2021/01/19 04:09:26;;;;;;;7.47;3.63;;;4.30;94.80;;;;;;5107647;28;20116;-70
2021/01/19 04:11:52;;;;;;;5.45;2.20;;;4.70;94.70;;;;;;5111713;28;20149;-72
2021/01/19 04:14:18;;;;;;;7.18;3.20;;;4.30;94.40;;;;;;5107492;28;20044;-71
2021/01/19 04:16:45;;;;;;;8.95;3.45;;;4.70;94.90;;;;;;5106140;27;20452;-71
2021/01/19 04:19:11;;;;;;;9.82;3.53;;;4.30;94.50;;;;;;5111157;28;20051;-72
2021/01/19 04:21:38;;;;;;;5.45;3.10;;;4.30;94.70;;;;;;5108853;28;20071;-71
2021/01/19 04:24:05;;;;;;;7.43;2.92;;;4.50;95.00;;;;;;5108653;28;20451;-70
2021/01/19 04:26:31;;;;;;;7.60;3.30;;;4.40;95.00;;;;;;5102678;28;20043;-71
2021/01/19 04:28:58;;;;;;;6.10;3.47;;;4.50;95.20;;;;;;5105393;28;20044;-71
2021/01/19 04:31:24;;;;;;;9.45;3.55;;;4.10;95.00;;;;;;5104094;28;20109;-71
2021/01/19 04:33:50;;;;;;;6.47;3.53;;;4.30;95.10;;;;;;5109339;28;20079;-73
2021/01/19 04:36:16;;;;;;;8.68;3.28;;;4.10;95.00;;;;;;5110747;28;20101;-71
2021/01/19 04:38:43;;;;;;;10.13;3.38;;;4.30;95.10;;;;;;5102516;28;20071;-70
2021/01/19 04:41:10;;;;;;;9.77;3.55;;;4.10;95.10;;;;;;5106061;28;20071;-69
2021/01/19 04:43:37;;;;;;;7.15;3.78;;;4.50;95.10;;;;;;5107418;28;20047;-70
2021/01/19 04:46:05;;;;;;;8.20;2.55;;;4.30;95.10;;;;;;5109764;28;20085;-70
2021/01/19 04:48:31;;;;;;;5.50;3.22;;;4.20;94.90;;;;;;5106269;27;20465;-71
2021/01/19 04:50:58;;;;;;;4.57;2.72;;;4.30;94.70;;;;;;5112392;28;20100;-71
2021/01/19 04:53:31;;;;;;;9.60;3.50;;;4.10;94.90;;;;;;5110153;28;20367;-72
2021/01/19 04:56:03;;;;;;;6.40;3.25;;;4.40;95.10;;;;;;5103041;28;20540;-70
2021/01/19 04:58:35;;;;;;;8.57;3.75;;;4.10;95.00;;;;;;5110865;28;20078;-71
2021/01/19 05:01:12;;;;;;;6.32;3.28;;;4.10;94.80;;;;;;5102427;28;20040;-71
2021/01/19 05:03:41;;;;;;;7.65;3.22;;;4.10;94.90;;;;;;5108758;27;20403;-71
2021/01/19 05:06:42;;;;;;;5.72;2.88;;;4.20;95.20;;;;;;5111302;28;20043;-71
2021/01/19 05:09:09;;;;;;;;;;;4.20;95.00;;;;;;5108051;28;20112;-71
2021/01/19 05:11:52;;;;;;;4.70;2.97;;;4.10;94.80;;;;;;5107512;28;20262;-71
2021/01/19 05:14:22;;;;;;;6.97;3.22;;;4.10;94.80;;;;;;5108416;28;20092;-71
2021/01/19 05:16:50;;;;;;;6.32;3.40;;;4.40;95.00;;;;;;5104368;28;20082;-72
2021/01/19 05:19:21;;;;;;;5.68;3.45;;;4.00;95.00;;;;;;5106304;28;20117;-70
2021/01/19 05:21:48;;;;;;;10.85;3.20;;;3.90;94.90;;;;;;5111200;28;20508;-72
2021/01/19 05:24:15;;;;;;;13.63;3.30;;;4.20;95.00;;;;;;5107162;28;20055;-70
2021/01/19 05:26:42;;;;;;;6.95;3.15;;;4.00;94.90;;;;;;5098507;28;20161;-71
2021/01/19 05:29:09;;;;;;;12.10;3.50;;;4.40;95.00;;;;;;5112268;28;20047;-71
2021/01/19 05:31:35;;;;;;;8.40;3.60;;;4.00;94.90;;;;;;5106141;28;20539;-71
2021/01/19 05:34:06;;;;;;;10.25;3.55;;;4.20;94.90;;;;;;5104010;28;20063;-71
2021/01/19 05:36:43;;;;;;;7.95;3.40;;;4.20;94.80;;;;;;5111494;28;20086;-71
2021/01/19 05:39:13;;;;;;;7.07;3.45;;;4.00;94.80;;;;;;5106951;28;20137;-71
2021/01/19 05:41:41;;;;;;;;;;;4.10;94.70;;;;;;5098734;28;20494;-71
2021/01/19 05:44:10;;;;;;;6.55;3.00;;;4.00;94.60;;;;;;5107678;28;19919;-72
2021/01/19 05:46:42;;;;;;;8.75;3.42;;;4.20;94.50;;;;;;5107855;28;20043;-71
2021/01/19 05:49:13;;;;;;;9.60;3.75;;;3.80;94.70;;;;;;5105434;28;20090;-70
2021/01/19 05:51:46;;;;;;;7.13;3.15;;;3.90;94.90;;;;;;5103317;28;20411;-70
2021/01/19 05:54:25;;;;;;;8.35;3.13;;;4.00;94.60;;;;;;5102334;28;20513;-71
2021/01/19 05:56:59;;;;;;;7.80;3.25;;;3.80;94.70;;;;;;5108158;28;20044;-71
2021/01/19 05:59:27;;;;;;;7.93;3.25;;;4.10;94.60;;;;;;5106540;28;20056;-70
2021/01/19 06:02:17;;;;;;;8.77;2.80;;;4.00;94.70;;;;;;5104424;28;20044;-71
2021/01/19 06:04:45;;;;;;;;;;;4.20;94.60;;;;;;5106024;28;20063;-72
2021/01/19 06:07:13;;;;;;;5.55;2.90;;;3.90;94.70;;;;;;5110267;28;20464;-70
2021/01/19 06:09:41;;;;;;;6.00;2.33;;;3.90;94.50;;;;;;5105207;28;20789;-72
2021/01/19 06:12:08;;;;;;;5.45;2.63;;;3.80;94.50;;;;;;5110804;28;20044;-71
2021/01/19 06:14:36;;;;;;;5.82;2.70;;;3.70;94.50;;;;;;5103099;28;20075;-72
2021/01/19 06:17:22;;;;;;;5.72;2.80;;;3.70;94.60;;;;;;5101869;28;20459;-72
2021/01/19 06:19:53;;;;;;;6.07;2.58;;;3.70;94.50;;;;;;5108695;28;20039;-72
2021/01/19 06:22:23;;;;;;;3.80;2.20;;;3.80;94.50;;;;;;5104443;28;20480;-73
2021/01/19 06:24:51;;;;;;;5.45;2.65;;;3.90;94.30;;;;;;5103085;28;20044;-72
2021/01/19 06:27:37;;;;;;;4.53;2.45;;;4.00;94.30;;;;;;5109555;28;20048;-70
2021/01/19 06:30:07;;;;;;;5.15;2.63;;;3.80;94.30;;;;;;5108505;28;20439;-70
2021/01/19 06:32:46;;;;;;;7.25;2.58;;;4.20;94.40;;;;;;5100741;28;20447;-71
2021/01/19 06:35:16;;;;;;;5.47;2.42;;;3.90;94.30;;;;;;5109921;28;20043;-71
2021/01/19 06:37:44;;;;;;;5.22;2.58;;;3.90;94.30;;;;;;5108226;28;20067;-71
2021/01/19 06:40:13;;;;;;;4.75;2.53;;;4.30;94.20;;;;;;5105148;28;20075;-71
2021/01/19 06:42:40;;;;;;;9.32;3.10;;;4.00;94.30;;;;;;5108187;28;20048;-71
2021/01/19 06:45:07;;;;;;;5.90;2.30;;;3.90;94.30;;;;;;5102918;28;20077;-70
2021/01/19 06:47:36;;;;;;;11.10;2.88;;;3.60;94.30;;;;;;5105817;28;20043;-72
2021/01/19 06:50:06;;;;;;;7.05;2.60;;;3.80;94.40;;;;;;5109418;28;20047;-71
2021/01/19 06:52:41;;;;;;;5.85;2.78;;;3.70;94.10;;;;;;5107029;28;20439;-71
2021/01/19 06:55:22;;;;;;;5.65;2.40;;;3.80;94.20;;;;;;5099107;28;20139;-72
2021/01/19 06:58:00;;;;;;;6.28;2.60;;;3.70;94.30;;;;;;5108216;28;20043;-73
2021/01/19 07:00:40;;;;;;;6.47;2.60;;;3.60;94.30;;;;;;5105526;28;20116;-71
2021/01/19 07:03:21;;;;;;;8.23;2.90;;;3.70;94.50;;;;;;5109424;28;20092;-71
2021/01/19 07:05:53;;;;;;;8.48;2.90;;;3.90;94.50;;;;;;5109932;28;20101;-71
2021/01/19 07:08:19;;;;;;;8.45;3.05;;;3.70;94.30;;;;;;5105736;28;20134;-71
2021/01/19 07:10:48;;;;;;;3.67;2.38;;;3.70;94.30;;;;;;5098044;28;20075;-70
2021/01/19 07:13:24;;;;;;;7.78;2.40;;;4.00;94.30;;;;;;5107258;28;20052;-72
2021/01/19 07:15:56;;;;;;;8.07;2.58;;;3.70;94.20;;;;;;5103214;28;20394;-70
2021/01/19 07:18:45;;;;;;;10.25;2.55;;;3.60;94.40;;;;;;5107897;28;20394;-72
2021/01/19 07:21:13;;;;;;;3.67;1.77;;;3.70;94.30;;;;;;5106801;28;20110;-71
2021/01/19 07:23:47;;;;;;;7.32;2.53;;;3.60;94.50;;;;;;5102786;28;20465;-72
2021/01/19 07:26:15;;;;;;;4.80;2.45;;;3.70;94.30;;;;;;5104664;28;20548;-71
2021/01/19 07:28:42;;;;;;;8.05;2.50;;;3.60;94.30;;;;;;5111031;28;20455;-71
2021/01/19 07:31:10;;;;;;;5.60;2.35;;;3.50;94.70;;;;;;5109523;28;20052;-71
2021/01/19 07:33:41;;;;;;;9.77;2.63;;;3.40;94.40;;;;;;5113063;28;20084;-71
2021/01/19 07:36:14;;;;;;;6.18;2.33;;;3.70;94.60;;;;;;5113279;28;20351;-71
2021/01/19 07:38:40;;;;;;;8.25;2.45;;;3.60;94.20;;;;;;5105843;27;20060;-71
2021/01/19 07:41:07;;;;;;;7.32;2.60;;;4.00;94.40;;;;;;5107601;28;20065;-71
2021/01/19 07:43:35;;;;;;;8.20;2.72;;;3.60;94.30;;;;;;5109450;28;20135;-72
2021/01/19 07:46:27;;;;;;;6.47;2.45;;;3.90;94.30;;;;;;5107260;28;20139;-70
2021/01/19 07:49:05;;;;;;;7.85;2.45;;;4.00;94.30;;;;;;5112747;28;20415;-72
2021/01/19 07:51:39;;;;;;;7.18;2.78;;;3.70;94.10;;;;;;5109594;28;20054;-71
2021/01/19 07:54:05;;;;;;;8.13;3.00;;;3.80;94.30;;;;;;5111103;28;20086;-71
2021/01/19 07:56:33;;;;;;;9.20;2.28;;;3.70;94.30;;;;;;5112479;28;20048;-72
2021/01/19 07:59:03;;;;;;;6.80;2.42;;;3.70;94.00;;;;;;5107897;28;20062;-71
2021/01/19 08:01:36;;;;;;;9.43;2.30;;;3.70;94.00;;;;;;5107756;28;20044;-72
2021/01/19 08:04:10;;;;;;;3.80;1.65;;;3.80;94.10;;;;;;5107829;28;20048;-72
2021/01/19 08:06:38;;;;;;;6.55;2.42;;;3.80;93.90;;;;;;5108035;28;20462;-70
2021/01/19 08:09:18;;;;;;;8.48;2.45;;;3.90;94.10;;;;;;5105513;28;20123;-70
2021/01/19 08:11:45;;;;;;;6.22;2.28;;;4.00;93.70;;;;;;5104999;28;20081;-72
2021/01/19 08:14:14;;;;;;;7.78;2.60;;;3.80;94.00;;;;;;5108424;28;20091;-71
2021/01/19 08:16:48;;;;;;;5.03;1.85;;;4.20;94.10;;;;;;5105670;28;20056;-71
2021/01/19 08:19:15;;;;;;;3.67;1.00;;;3.90;94.30;;;;;;5108230;28;20052;-72
2021/01/19 08:21:48;;;;;;;5.43;2.13;;;3.70;93.90;;;;;;5110128;28;20108;-72
2021/01/19 08:24:14;;;;;;;5.72;2.45;;;3.90;93.90;;;;;;5111478;28;20052;-71
2021/01/19 08:26:44;;;;;;;9.13;2.35;;;4.10;94.00;;;;;;5111822;28;20524;-70
2021/01/19 08:29:27;;;;;;;7.95;2.22;;;4.00;94.00;;;;;;5108875;28;20454;-71
2021/01/19 08:32:01;;;;;;;3.90;2.15;;;4.10;93.80;;;;;;5104073;28;20068;-72
2021/01/19 08:34:30;;;;;;;4.45;2.30;;;4.10;93.50;;;;;;5112486;28;20055;-71
2021/01/19 08:36:59;;;;;;;7.47;2.50;;;4.20;93.60;;;;;;5110085;28;20051;-72
2021/01/19 08:39:25;;;;;;;6.60;1.50;;;4.20;93.50;;;;;;5096869;28;20051;-70
2021/01/19 08:41:54;;;;;;;3.85;1.95;;;4.10;94.10;;;;;;5107582;28;20150;-71
2021/01/19 08:44:36;;;;;;;7.30;2.00;;;4.10;93.70;;;;;;5087246;28;20044;-71
2021/01/19 08:47:03;;;;;;;9.70;2.47;;;4.10;93.70;;;;;;5089119;28;20980;-70
2021/01/19 08:49:37;;;;;;;5.35;1.88;;;4.10;93.50;;;;;;5089884;28;20074;-70
2021/01/19 08:52:05;;;;;;;6.50;2.35;;;4.00;93.70;;;;;;5088556;28;20051;-69
2021/01/19 08:54:32;;;;;;;7.43;2.17;;;4.10;93.70;;;;;;5090308;28;20135;-70
2021/01/19 08:56:58;;;;;;;6.78;2.25;;;4.20;93.70;;;;;;5089256;28;20049;-70
2021/01/19 08:59:37;;;;;;;5.15;2.25;;;4.20;93.60;;;;;;5086399;28;20063;-69
2021/01/19 09:02:04;;;;;;;8.02;2.55;;;4.40;93.90;;;;;;5092717;27;20135;-70
2021/01/19 09:04:31;;;;;;;5.18;2.30;;;4.00;93.90;;;;;;5089886;28;20083;-70
2021/01/19 09:07:07;;;;;;;5.72;2.17;;;4.50;93.90;;;;;;5088165;28;20070;-71
2021/01/19 09:09:34;;;;;;;4.80;2.33;;;4.30;93.40;;;;;;5087101;28;20085;-70
2021/01/19 09:12:00;;;;;;;10.77;2.92;;;4.40;93.60;;;;;;5092800;28;20059;-71
2021/01/19 09:14:27;;;;;;;8.07;2.35;;;4.10;93.70;;;;;;5089527;28;20567;-70
2021/01/19 09:16:54;;;;;;;3.42;2.10;;;4.40;93.80;;;;;;5087860;28;20144;-70
2021/01/19 09:19:21;;;;;;;6.75;2.00;;;4.10;93.70;;;;;;5088694;28;20079;-70
2021/01/19 09:21:48;;;;;;;6.82;2.15;;;4.20;93.80;;;;;;5087650;28;20451;-70
2021/01/19 09:24:17;;;;;;;8.70;2.55;;;4.40;93.40;;;;;;5086470;28;20571;-71
2021/01/19 09:26:56;;;;;;;5.93;2.10;;;4.40;93.70;;;;;;5090446;28;20772;-70
2021/01/19 09:29:28;;;;;;;5.25;2.28;;;4.30;93.50;;;;;;5086014;28;20142;-71
2021/01/19 09:31:57;;;;;;;3.83;2.03;;;4.30;93.50;;;;;;5092520;28;20083;-70
2021/01/19 09:34:24;;;;;;;6.13;1.98;;;4.20;93.50;;;;;;5087440;28;20058;-71
2021/01/19 09:36:50;;;;;;;7.53;2.45;;;4.40;93.60;;;;;;5090472;28;20598;-71
2021/01/19 09:39:27;;;;;;;3.88;1.88;;;4.40;93.60;;;;;;5088272;28;20048;-72
2021/01/19 09:41:57;;;;;;;4.45;1.83;;;4.40;93.50;;;;;;5088768;28;20453;-71
2021/01/19 09:44:24;;;;;;;6.20;2.10;;;4.20;93.40;;;;;;5085584;28;20044;-70
2021/01/19 09:46:54;;;;;;;2.90;1.65;;;4.30;93.50;;;;;;5087388;28;21007;-74
2021/01/19 09:49:23;;;;;;;5.53;2.47;;;4.30;93.40;;;;;;5087132;28;20132;-70
2021/01/19 09:51:49;;;;;;;6.53;2.33;;;4.50;93.40;;;;;;5089818;28;20137;-70
2021/01/19 09:54:23;;;;;;;5.25;2.22;;;4.40;93.20;;;;;;5089078;27;20786;-70
2021/01/19 09:56:59;;;;;;;7.05;2.40;;;4.40;93.20;;;;;;5085012;28;20097;-70
2021/01/19 09:59:26;;;;;;;1.92;1.10;;;4.30;93.40;;;;;;5087965;28;20124;-71
2021/01/19 10:01:57;;;;;;;8.90;2.50;;;4.30;93.20;;;;;;5086522;28;20477;-71
2021/01/19 10:04:24;;;;;;;5.18;1.80;;;4.40;93.20;;;;;;5095587;28;20418;-70
2021/01/19 10:07:09;;;;;;;9.32;2.38;;;4.40;93.30;;;;;;5086548;28;20079;-72
2021/01/19 10:09:38;;;;;;;5.85;2.05;;;4.60;93.20;;;;;;5088570;28;21146;-71
2021/01/19 10:12:06;;;;;;;7.30;2.53;;;4.80;93.00;;;;;;5088102;28;20136;-71
2021/01/19 10:14:35;;;;;;;7.53;2.30;;;4.30;92.90;;;;;;5088935;28;20052;-70
2021/01/19 10:17:30;;;;;;;9.07;2.40;;;4.70;92.90;;;;;;5088067;28;20085;-69
2021/01/19 10:20:13;;;;;;;9.63;2.03;;;4.70;93.10;;;;;;5088691;28;20056;-72
2021/01/19 10:22:46;;;;;;;5.30;1.80;;;4.70;93.40;;;;;;5087963;28;20785;-73
2021/01/19 10:25:24;;;;;;;6.88;2.30;;;4.50;92.80;;;;;;5088353;28;20158;-73
2021/01/19 10:27:58;;;;;;;3.05;1.83;;;4.60;92.60;;;;;;5091866;28;20051;-72
2021/01/19 10:30:40;;;;;;;9.25;1.98;;;4.50;92.90;;;;;;5089351;28;20075;-78
2021/01/19 10:33:06;;;;;;;5.10;1.88;;;4.60;92.90;;;;;;5085767;28;20055;-71
2021/01/19 10:35:36;;;;;;;5.20;2.28;;;4.70;92.80;;;;;;5087214;28;20051;-71
2021/01/19 10:38:07;;;;;;;3.70;2.10;;;4.70;92.70;;;;;;5084969;28;20055;-70
2021/01/19 10:40:36;;;;;;;4.00;1.85;;;4.60;92.60;;;;;;5094364;28;20059;-72
2021/01/19 10:43:10;;;;;;;4.47;2.03;;;4.90;92.60;;;;;;5088809;28;20051;-71
2021/01/19 10:45:41;;;;;;;4.13;1.75;;;4.70;92.30;;;;;;5090708;28;20043;-70
2021/01/19 10:48:21;;;;;;;5.22;1.80;;;4.70;92.00;;;;;;5088937;28;20047;-71
2021/01/19 10:50:49;;;;;;;7.38;2.08;;;4.70;92.10;;;;;;5087453;28;20422;-73
2021/01/19 10:53:27;;;;;;;8.30;2.40;;;4.80;92.50;;;;;;5086935;28;20104;-70
2021/01/19 10:55:53;;;;;;;8.23;1.88;;;4.70;92.40;;;;;;5088228;28;20130;-74
2021/01/19 10:58:20;;;;;;;4.80;1.92;;;4.50;92.70;;;;;;5087334;28;20105;-71
2021/01/19 11:00:46;;;;;;;4.63;1.92;;;4.40;92.50;;;;;;5090533;28;20047;-71
2021/01/19 11:03:12;;;;;;;6.53;2.20;;;4.60;92.70;;;;;;5089940;28;20453;-72
2021/01/19 11:05:39;;;;;;;5.65;2.03;;;5.00;92.80;;;;;;5091790;28;20165;-72
2021/01/19 11:08:05;;;;;;;9.82;2.13;;;4.70;92.50;;;;;;5091398;28;20044;-72
2021/01/19 11:10:32;;;;;;;3.10;1.58;;;4.70;92.70;;;;;;5091949;28;20087;-73
2021/01/19 11:13:02;;;;;;;2.42;1.52;;;4.80;92.80;;;;;;5090749;28;20055;-72
2021/01/19 11:15:28;;;;;;;5.15;2.03;;;4.70;92.90;;;;;;5089187;28;20452;-74
2021/01/19 11:17:55;;;;;;;2.05;1.27;;;4.60;93.00;;;;;;5088426;28;20154;-72
2021/01/19 11:20:22;;;;;;;7.88;2.38;;;4.60;92.80;;;;;;5090176;28;20386;-72
2021/01/19 11:22:49;;;;;;;9.73;2.25;;;4.60;93.10;;;;;;5096249;28;20075;-72
2021/01/19 11:25:16;;;;;;;3.55;1.80;;;4.70;92.90;;;;;;5097545;28;20048;-72
2021/01/19 11:27:43;;;;;;;5.07;2.10;;;4.90;93.20;;;;;;5088115;28;20388;-68
2021/01/19 11:30:10;;;;;;;6.15;2.17;;;4.90;93.90;;;;;;5090594;27;20554;-69
2021/01/19 11:32:37;;;;;;;1.90;1.10;;;4.90;93.50;;;;;;5088972;28;20105;-68
2021/01/19 11:35:04;;;;;;;5.38;2.40;;;4.90;93.30;;;;;;5092363;28;20047;-68
2021/01/19 11:37:30;;;;;;;4.28;2.22;;;5.30;93.00;;;;;;5090301;28;20410;-69
2021/01/19 11:39:57;;;;;;;5.22;1.73;;;5.10;92.80;;;;;;5089474;28;20096;-69
2021/01/19 11:42:23;;;;;;;9.85;2.83;;;5.10;93.00;;;;;;5092906;27;20050;-68
2021/01/19 11:44:49;;;;;;;2.63;1.15;;;5.30;92.90;;;;;;5100884;28;20044;-69
2021/01/19 11:47:16;;;;;;;8.07;2.13;;;5.10;93.10;;;;;;5102576;28;20158;-69
2021/01/19 11:49:48;;;;;;;7.13;2.25;;;5.10;93.10;;;;;;5109461;27;20052;-69
2021/01/19 11:52:18;;;;;;;6.43;2.28;;;5.10;93.40;;;;;;5106636;28;20048;-70
2021/01/19 11:54:45;;;;;;;4.95;2.50;;;5.10;93.60;;;;;;5101869;27;20454;-70
2021/01/19 11:57:11;;;;;;;5.55;2.20;;;5.10;94.50;;;;;;5107805;28;20399;-70
2021/01/19 11:59:37;;;;;;;7.80;2.38;;;5.10;94.10;;;;;;5106022;28;20483;-69
2021/01/19 12:02:04;;;;;;;4.40;2.22;;;5.20;94.30;;;;;;5102754;27;20048;-70
2021/01/19 12:04:30;;;;;;;5.05;1.98;;;4.90;94.50;;;;;;5102764;28;20052;-70
2021/01/19 12:06:59;;;;;;;7.95;2.30;;;4.80;95.40;;;;;;5102138;28;20048;-70
2021/01/19 12:09:25;;;;;;;4.85;1.70;;;4.80;95.50;;;;;;5097744;27;20093;-68
2021/01/19 12:11:54;;;;;;;8.05;2.20;;;5.00;96.20;;;;;;5103265;28;20079;-71
2021/01/19 12:14:22;;;;;;;5.43;2.35;;;4.80;95.90;;;;;;5105091;28;20806;-70
2021/01/19 12:16:53;;;;;;;5.75;2.22;;;5.00;96.00;;;;;;5106107;27;20134;-71
2021/01/19 12:19:21;;;;;;;11.57;5.63;;;4.80;96.20;;;;;;5105481;28;20186;-70
2021/01/19 12:21:58;;;;;;;5.53;2.22;;;4.90;96.00;;;;;;5107751;28;20047;-71
2021/01/19 12:24:25;;;;;;;5.70;2.15;;;4.80;96.20;;;;;;5108900;28;20117;-73
2021/01/19 12:26:54;;;;;;;8.15;2.28;;;4.80;96.40;;;;;;5104710;28;20048;-72
2021/01/19 12:29:21;;;;;;;6.00;2.03;;;4.90;96.50;;;;;;5095274;28;20118;-72
2021/01/19 12:31:48;;;;;;;3.67;1.70;;;4.80;96.50;;;;;;5102548;28;20471;-72
2021/01/19 12:34:16;;;;;;;7.43;2.40;;;5.00;96.50;;;;;;5103268;28;20769;-72
2021/01/19 12:36:44;;;;;;;6.15;2.10;;;5.00;96.50;;;;;;5107464;28;20051;-72
2021/01/19 12:39:10;;;;;;;9.45;2.70;;;5.00;96.40;;;;;;5103202;27;20155;-73
2021/01/19 12:41:37;;;;;;;4.40;2.03;;;5.30;96.50;;;;;;5103015;28;20192;-75
2021/01/19 12:44:04;;;;;;;4.70;2.28;;;5.00;96.60;;;;;;5109138;28;20385;-71
2021/01/19 12:46:31;;;;;;;6.82;2.60;;;5.00;96.90;;;;;;5108672;27;20118;-71
2021/01/19 12:48:58;;;;;;;4.68;2.28;;;5.10;96.90;;;;;;5107632;28;20046;-72
2021/01/19 12:51:27;;;;;;;4.70;1.77;;;5.30;97.00;;;;;;5110792;28;20380;-72
2021/01/19 12:53:54;;;;;;;9.13;1.98;;;5.20;96.90;;;;;;5109641;28;20249;-72
2021/01/19 12:56:20;;;;;;;8.00;2.28;;;5.20;97.10;;;;;;5101106;27;20581;-70
2021/01/19 12:58:47;;;;;;;4.35;1.88;;;5.10;97.20;;;;;;5109933;28;20432;-72
2021/01/19 13:01:14;;;;;;;5.53;1.80;;;5.20;97.10;;;;;;5101765;28;20078;-72
2021/01/19 13:03:41;;;;;;;7.20;1.88;;;5.20;97.30;;;;;;5111447;28;20453;-71
2021/01/19 13:06:08;;;;;;;4.47;2.20;;;5.40;97.30;;;;;;5109717;28;20043;-72
2021/01/19 13:08:35;;;;;;;4.18;2.00;;;5.30;97.50;;;;;;5106556;27;20048;-71
2021/01/19 13:11:01;;;;;;;5.82;2.22;;;5.20;97.70;;;;;;5105842;28;20052;-71